Tukertown, Arkansas
Current Conditions -  °F | °C
As of 7:53 PM on Saturday 22 Nov 2014 (Local Time) from KHKA Reporting Station
Overcast Overcast  
Wind Chill: 62°   Ceiling: 8500
Heat Index: 62°   Visibility: 10mi
Dew Point: 42°   Wind: 3mph
Humidity: 48%   Direction: 150°SSE
Pressure: 30.03"   Gusts: NA
Location:  35.809°N, 89.9565°W
Report Text: KHKA 230153Z AUTO 15003KT 10SM BKN085 OVC110 17/06 A3003 RMK AO2 SLP167 T01670056 $
Loading
Personal Weather Stations






























Interactive Weather Map New forecast layout! Learn more

10-Day Weather Forecast

Advertisements
Track Severe Weather on mobile